Time,TemperatureF,DewpointF,PressureIn,WindDirection,WindDirectionDegrees,WindSpeedMPH,WindSpeedGustMPH,Humidity,HourlyPrecipIn,Conditions,Clouds,dailyrainin,SoftwareType,DateUTC
2013-02-18 00:42:00,6.0,-99.9,30.11,SE,134,6.0,6.0,-999,-99.99,,,-99.99,,2013-02-18 05:42:00,
2013-02-18 01:11:00,8.0,-99.9,30.11,SE,135,4.0,5.0,-999,-99.99,,,-99.99,,2013-02-18 06:11:00,
2013-02-18 02:11:00,8.0,-99.9,30.11,SE,131,4.0,5.0,-999,-99.99,,,-99.99,,2013-02-18 07:11:00,
2013-02-18 02:42:00,8.0,-99.9,30.11,SE,143,5.0,6.0,-999,-99.99,,,-99.99,,2013-02-18 07:42:00,
2013-02-18 03:11:00,8.0,-99.9,30.10,SE,132,5.0,6.0,-999,-99.99,,,-99.99,,2013-02-18 08:11:00,
2013-02-18 03:42:00,8.0,-99.9,30.10,SE,130,5.0,7.0,-999,-99.99,,,-99.99,,2013-02-18 08:42:00,
2013-02-18 04:11:00,7.0,-99.9,30.09,SE,143,5.0,6.0,-999,-99.99,,,-99.99,,2013-02-18 09:11:00,
2013-02-18 05:12:00,7.0,-99.9,30.07,SE,137,5.0,7.0,-999,-99.99,,,-99.99,,2013-02-18 10:12:00,
2013-02-18 05:43:00,7.0,-99.9,30.06,SSE,149,4.0,6.0,-999,-99.99,,,-99.99,,2013-02-18 10:43:00,
2013-02-18 06:12:00,7.0,-99.9,30.05,SE,139,5.0,6.0,-999,-99.99,,,-99.99,,2013-02-18 11:12:00,
2013-02-18 07:12:00,7.0,-99.9,30.01,SE,141,6.0,8.0,-999,-99.99,,,-99.99,,2013-02-18 12:12:00,
2013-02-18 07:42:00,8.0,-99.9,29.99,SSE,147,7.0,9.0,-999,-99.99,,,-99.99,,2013-02-18 12:42:00,
2013-02-18 08:12:00,8.0,-99.9,29.98,SE,126,6.0,6.0,-999,-99.99,,,-99.99,,2013-02-18 13:12:00,
2013-02-18 08:43:00,11.0,-99.9,29.98,SE,137,6.0,8.0,-999,-99.99,,,-99.99,,2013-02-18 13:43:00,
2013-02-18 09:12:00,11.0,-99.9,29.96,SE,127,5.0,8.0,-999,-99.99,,,-99.99,,2013-02-18 14:12:00,
2013-02-18 10:12:00,18.0,-99.9,29.94,East,100,4.0,7.0,-999,-99.99,,,-99.99,,2013-02-18 15:12:00,
2013-02-18 10:42:00,23.0,-99.9,29.93,SE,131,15.0,21.0,-999,-99.99,,,-99.99,,2013-02-18 15:42:00,
2013-02-18 11:12:00,19.0,-99.9,29.92,East,91,8.0,11.0,-999,-99.99,,,-99.99,,2013-02-18 16:12:00,
2013-02-18 12:13:00,26.0,-99.9,29.87,ESE,120,11.0,19.0,-999,-99.99,,,-99.99,,2013-02-18 17:13:00,
2013-02-18 12:43:00,28.0,-99.9,29.84,SE,137,15.0,29.0,-999,-99.99,,,-99.99,,2013-02-18 17:43:00,
2013-02-18 13:43:00,29.0,-99.9,29.81,SE,144,19.0,24.0,-999,-99.99,,,-99.99,,2013-02-18 18:43:00,
2013-02-18 14:13:00,29.0,-99.9,29.80,SE,146,17.0,31.0,-999,-99.99,,,-99.99,,2013-02-18 19:13:00,
2013-02-18 15:13:00,29.0,-99.9,29.77,SE,145,24.0,32.0,-999,-99.99,,,-99.99,,2013-02-18 20:13:00,
2013-02-18 15:43:00,30.0,-99.9,29.75,SE,144,18.0,28.0,-999,-99.99,,,-99.99,,2013-02-18 20:43:00,
2013-02-18 16:43:00,30.0,-99.9,29.73,SE,143,21.0,36.0,-999,-99.99,,,-99.99,,2013-02-18 21:43:00,
2013-02-18 17:13:00,30.0,-99.9,29.72,SE,144,21.0,32.0,-999,-99.99,,,-99.99,,2013-02-18 22:13:00,
2013-02-18 17:44:00,30.0,-99.9,29.71,SE,146,21.0,32.0,-999,-99.99,,,-99.99,,2013-02-18 22:44:00,
2013-02-18 18:12:00,30.0,-99.9,29.71,SE,144,22.0,29.0,-999,-99.99,,,-99.99,,2013-02-18 23:12:00,
2013-02-18 18:43:00,30.0,-99.9,29.71,SE,138,20.0,32.0,-999,-99.99,,,-99.99,,2013-02-18 23:43:00,
2013-02-18 18:54:00,30.0,-99.9,29.71,SE,138,20.0,32.0,-999,-99.99,,,-99.99,,2013-02-18 23:54:00,
2013-02-18 19:13:00,30.0,-99.9,29.72,SE,135,16.0,27.0,-999,-99.99,,,-99.99,,2013-02-19 00:13:00,
2013-02-18 19:44:00,31.0,-99.9,29.71,SE,133,19.0,26.0,-999,-99.99,,,-99.99,,2013-02-19 00:44:00,
2013-02-18 20:15:00,31.0,-99.9,29.69,SE,128,17.0,24.0,-999,-99.99,,,-99.99,,2013-02-19 01:15:00,
2013-02-18 21:15:00,31.0,-99.9,29.65,SE,131,13.0,23.0,-999,-99.99,,,-99.99,,2013-02-19 02:15:00,
2013-02-18 21:44:00,31.0,-99.9,29.63,SE,136,18.0,25.0,-999,-99.99,,,-99.99,,2013-02-19 02:44:00,
2013-02-18 22:15:00,-999.0,-99.9,29.62,SE,135,16.0,24.0,-999,-99.99,,,-99.99,,2013-02-19 03:15:00,
2013-02-18 23:15:00,31.0,-99.9,29.59,SE,137,13.0,18.0,-999,-99.99,,,-99.99,,2013-02-19 04:15:00,
2013-02-18 23:45:00,32.0,-99.9,29.57,SE,130,12.0,18.0,-999,-99.99,,,-99.99,,2013-02-19 04:45:00,